Time;durP1;ratioP1;P1;durP2;ratioP2;P2;SDS_P1;SDS_P2;PMS_P1;PMS_P2;Temp;Humidity;BMP_temperature;BMP_pressure;BME280_temperature;BME280_humidity;BME280_pressure;Samples;Min_cycle;Max_cycle;Signal;HPM_P1;HPM_P2
2022/04/21 01:27:58;;;;;;;0.00;0.00;;;;;;;6.39;67.65;99015.44;4860013;29;20074;-79
2022/04/21 01:30:24;;;;;;;0.10;0.10;;;;;;;6.38;68.03;99024.44;4843636;29;20106;-78
2022/04/21 01:32:51;;;;;;;0.43;0.43;;;;;;;6.40;67.54;99031.13;4844310;29;20037;-79
2022/04/21 03:32:47;;;;;;;0.00;0.00;;;;;;;5.49;69.76;98973.94;5128234;23;20064;31
2022/04/21 03:35:52;;;;;;;0.00;0.00;;;;;;;5.54;70.47;98981.16;4877505;29;20109;-82
2022/04/21 03:47:43;;;;;;;0.00;0.00;;;;;;;6.30;70.26;98975.25;5069074;23;20055;-82
2022/04/21 03:52:40;;;;;;;0.00;0.00;;;;;;;7.01;68.95;98994.78;4848018;29;20053;-79
2022/04/21 03:55:08;;;;;;;0.00;0.00;;;;;;;7.33;67.48;98983.31;4875082;29;20092;-80
2022/04/21 03:57:33;;;;;;;0.00;0.00;;;;;;;7.62;66.06;98985.63;4853072;29;20439;-79
2022/04/21 03:59:58;;;;;;;0.00;0.00;;;;;;;7.93;65.62;98986.56;4843223;29;20033;-79
2022/04/21 04:02:24;;;;;;;0.00;0.00;;;;;;;8.30;64.58;98976.81;4841729;29;20041;-78
2022/04/21 04:04:49;;;;;;;0.00;0.00;;;;;;;8.65;62.65;98983.34;4857238;29;20070;-78
2022/04/21 04:12:42;;;;;;;0.00;0.00;;;;;;;10.04;58.22;98991.16;4856274;29;20065;-75
2022/04/21 04:15:12;;;;;;;0.00;0.00;;;;;;;10.53;57.33;98991.50;4858086;29;20108;-76
2022/04/21 04:17:38;;;;;;;0.00;0.00;;;;;;;11.03;55.65;98986.88;4843592;29;20126;-77
2022/04/21 04:20:05;;;;;;;0.00;0.00;;;;;;;11.56;54.12;98984.50;4855361;29;20037;-85
2022/04/21 04:22:34;;;;;;;0.00;0.00;;;;;;;12.03;52.54;98993.66;4840256;29;20064;-78
2022/04/21 04:25:00;;;;;;;0.00;0.00;;;;;;;12.49;50.57;98992.28;4858582;29;20108;-76
2022/04/21 04:27:25;;;;;;;0.00;0.00;;;;;;;12.88;48.57;98998.44;4868476;29;20508;-77
2022/04/21 04:29:51;;;;;;;0.00;0.00;;;;;;;13.20;48.71;98991.47;4879438;29;20033;-75
2022/04/21 04:32:16;;;;;;;0.00;0.00;;;;;;;13.59;47.33;98990.28;4879888;29;20029;-75
2022/04/21 04:34:43;;;;;;;0.00;0.00;;;;;;;13.91;46.08;98997.47;4879780;29;20031;-75
2022/04/21 04:37:08;;;;;;;0.20;0.20;;;;;;;14.19;45.60;98993.94;4879768;29;20044;-75
2022/04/21 04:39:33;;;;;;;0.00;0.00;;;;;;;14.26;44.46;98997.03;4879300;29;20025;-76
2022/04/21 04:42:17;;;;;;;0.00;0.00;;;;;;;14.30;44.11;99000.69;4879780;29;20494;-75
2022/04/21 04:44:46;;;;;;;0.20;0.20;;;;;;;14.29;43.91;99001.78;4862933;29;20111;-75
2022/04/21 04:47:12;;;;;;;0.00;0.00;;;;;;;14.35;44.21;98997.88;4879615;29;20033;-75
2022/04/21 04:49:38;;;;;;;0.00;0.00;;;;;;;14.53;44.23;99003.44;4879764;29;20474;-75
2022/04/21 04:52:04;;;;;;;0.00;0.00;;;;;;;14.76;43.89;98998.13;4879888;29;20123;-75
2022/04/21 04:54:30;;;;;;;0.00;0.00;;;;;;;15.04;43.42;99002.28;4879183;29;20032;-75
2022/04/21 04:56:58;;;;;;;0.00;0.00;;;;;;;15.09;41.77;98998.69;4862706;29;20033;-75
2022/04/21 04:59:24;;;;;;;0.10;0.10;;;;;;;15.15;42.70;99002.06;4863036;29;20033;-75
2022/04/21 05:01:49;;;;;;;0.00;0.00;;;;;;;15.36;42.81;99003.13;4879797;29;20518;-75
2022/04/21 05:04:19;;;;;;;0.00;0.00;;;;;;;15.64;42.16;98994.06;4879405;29;20025;-75
2022/04/21 05:06:46;;;;;;;0.10;0.10;;;;;;;15.93;42.28;99006.25;4879072;29;20053;-76
2022/04/21 05:09:16;;;;;;;0.10;0.10;;;;;;;16.24;41.12;98995.38;4879681;29;20029;-75
2022/04/21 05:11:43;;;;;;;0.10;0.10;;;;;;;16.57;40.69;99000.34;4879077;29;20486;-75
2022/04/21 05:14:09;;;;;;;0.00;0.00;;;;;;;16.71;40.05;99010.19;4879485;29;20025;-76
2022/04/21 05:16:36;;;;;;;0.13;0.13;;;;;;;16.88;40.11;99009.38;4862558;29;20437;-76
2022/04/21 05:19:04;;;;;;;0.00;0.00;;;;;;;17.03;39.89;99008.94;4879373;29;20029;-77
2022/04/21 05:21:30;;;;;;;0.10;0.10;;;;;;;17.18;39.10;98996.03;4878880;29;20476;-75
2022/04/21 05:23:57;;;;;;;0.00;0.00;;;;;;;17.40;38.63;98993.09;4879296;29;20116;-76
2022/04/21 05:26:25;;;;;;;0.00;0.00;;;;;;;17.58;38.54;98990.38;4879367;29;20032;-75
2022/04/21 05:28:51;;;;;;;0.05;0.05;;;;;;;17.67;37.76;98996.53;4862645;29;20029;-75
2022/04/21 05:31:17;;;;;;;0.00;0.00;;;;;;;17.70;37.20;98997.78;4879239;29;20040;-75
2022/04/21 05:33:43;;;;;;;0.00;0.00;;;;;;;17.70;37.22;98990.47;4879066;29;20029;-75
2022/04/21 05:36:09;;;;;;;0.00;0.00;;;;;;;17.69;37.25;99002.41;4879182;29;20119;-76
2022/04/21 05:38:37;;;;;;;0.00;0.00;;;;;;;17.42;37.21;98990.88;4878178;29;20444;-75
2022/04/21 05:41:03;;;;;;;0.10;0.10;;;;;;;17.12;37.33;99004.31;4879165;29;20036;-75
2022/04/21 05:43:42;;;;;;;0.10;0.10;;;;;;;16.88;37.88;98998.59;4878665;29;20629;-75
2022/04/21 05:46:09;;;;;;;0.10;0.10;;;;;;;16.67;38.54;98998.44;4878969;29;20029;-74
2022/04/21 05:48:35;;;;;;;0.00;0.00;;;;;;;16.45;38.54;99003.69;4878621;29;20029;-74
2022/04/21 05:51:01;;;;;;;0.10;0.10;;;;;;;16.20;39.28;99007.91;4878675;29;20053;-75
2022/04/21 05:53:27;;;;;;;0.10;0.10;;;;;;;16.09;39.70;99012.81;4878491;29;20081;-75
2022/04/21 05:55:53;;;;;;;0.00;0.00;;;;;;;15.97;40.08;99012.63;4878014;29;20040;-75
2022/04/21 05:58:20;;;;;;;0.00;0.00;;;;;;;15.87;40.23;99016.41;4878300;29;20029;-75
2022/04/21 06:00:45;;;;;;;0.05;0.05;;;;;;;15.90;40.78;99015.75;4877830;29;20032;-75
2022/04/21 06:03:11;;;;;;;0.00;0.00;;;;;;;15.91;40.08;99025.44;4877941;29;20025;-74
2022/04/21 06:05:37;;;;;;;0.08;0.08;;;;;;;15.88;39.75;99012.59;4877685;29;20072;-74
2022/04/21 06:08:05;;;;;;;0.00;0.00;;;;;;;15.96;39.90;99014.50;4877962;29;20617;-74
2022/04/21 06:10:32;;;;;;;0.00;0.00;;;;;;;15.93;40.05;99014.31;4877753;29;20045;-75
2022/04/21 06:12:57;;;;;;;0.00;0.00;;;;;;;15.96;38.56;99024.50;4877685;29;20033;-76
2022/04/21 06:15:22;;;;;;;0.00;0.00;;;;;;;15.97;39.16;99031.50;4877629;29;20107;-74
2022/04/21 06:17:48;;;;;;;0.00;0.00;;;;;;;15.93;39.08;99019.72;4877523;29;20537;-76
2022/04/21 06:20:13;;;;;;;0.10;0.10;;;;;;;15.92;39.14;99020.84;4877890;29;20546;-76
2022/04/21 06:22:38;;;;;;;0.00;0.00;;;;;;;15.93;39.26;99023.22;4877611;29;20056;-76
2022/04/21 06:25:04;;;;;;;0.00;0.00;;;;;;;15.78;39.58;99020.91;4877374;29;20413;-76
2022/04/21 06:27:30;;;;;;;0.10;0.10;;;;;;;15.71;40.09;99017.88;4877703;29;20131;-75
2022/04/21 06:29:55;;;;;;;0.00;0.00;;;;;;;15.64;40.36;99019.09;4877791;29;20473;-76
2022/04/21 06:32:20;;;;;;;0.10;0.10;;;;;;;15.61;40.70;99018.94;4877570;29;20028;-75
2022/04/21 06:34:46;;;;;;;0.00;0.00;;;;;;;15.63;41.17;99020.22;4877227;29;20060;-75
2022/04/21 06:37:11;;;;;;;0.00;0.00;;;;;;;15.53;40.78;99007.00;4877511;29;20025;-75
2022/04/21 06:39:37;;;;;;;0.10;0.10;;;;;;;15.59;40.64;99015.78;4877084;29;20084;-75
2022/04/21 06:42:02;;;;;;;0.05;0.05;;;;;;;15.62;40.89;99015.13;4877253;29;20474;-75
2022/04/21 06:49:55;;;;;;;0.00;0.00;;;;;;;15.73;40.11;99013.75;4876922;29;20112;-75
2022/04/21 06:52:21;;;;;;;0.47;0.47;;;;;;;15.71;41.15;99012.47;4870645;29;20494;-75
2022/04/21 06:54:47;;;;;;;1.17;1.08;;;;;;;15.59;40.92;99019.25;4875585;29;20033;-75
2022/04/21 06:57:13;;;;;;;0.30;0.30;;;;;;;15.47;41.11;99027.91;4877132;29;20084;-75
2022/04/21 06:59:39;;;;;;;0.00;0.00;;;;;;;15.36;40.74;99038.16;4877228;29;20032;-75
2022/04/21 07:02:05;;;;;;;0.00;0.00;;;;;;;15.19;41.06;99033.44;4877156;29;20041;-75
2022/04/21 07:04:31;;;;;;;0.00;0.00;;;;;;;15.08;41.06;99039.41;4877357;29;20033;-75
2022/04/21 07:06:56;;;;;;;0.10;0.10;;;;;;;14.89;42.40;99029.56;4877707;29;20056;-75
2022/04/21 07:09:22;;;;;;;0.00;0.00;;;;;;;14.84;43.10;99038.59;4877381;29;20478;-75
2022/04/21 07:11:47;;;;;;;0.43;0.43;;;;;;;14.92;43.37;99034.38;4877346;29;20029;-75
2022/04/21 07:14:13;;;;;;;0.10;0.10;;;;;;;14.85;42.88;99029.38;4877542;29;20044;-76
2022/04/21 07:16:38;;;;;;;0.00;0.00;;;;;;;14.78;42.65;99034.41;4877297;29;20025;-75
2022/04/21 07:19:04;;;;;;;0.00;0.00;;;;;;;14.63;42.83;99024.75;4877531;29;20029;-76
2022/04/21 07:21:29;;;;;;;0.00;0.00;;;;;;;14.64;43.24;99037.09;4876990;29;20470;-76
2022/04/21 07:23:55;;;;;;;0.10;0.10;;;;;;;14.51;42.88;99032.56;4877398;29;20033;-75
2022/04/21 07:26:21;;;;;;;0.03;0.03;;;;;;;14.50;43.26;99039.84;4877098;29;20036;-76
2022/04/21 07:28:46;;;;;;;0.00;0.00;;;;;;;14.48;43.55;99036.66;4877223;29;20036;-75
2022/04/21 07:31:12;;;;;;;0.00;0.00;;;;;;;14.45;44.20;99034.53;4876184;29;20477;-75
2022/04/21 07:33:37;;;;;;;0.10;0.10;;;;;;;14.47;44.37;99042.34;4875869;29;20154;-75
2022/04/21 07:36:03;;;;;;;0.00;0.00;;;;;;;14.44;44.06;99030.28;4877035;29;20474;-76
2022/04/21 07:38:29;;;;;;;0.00;0.00;;;;;;;14.42;43.62;99027.09;4877298;29;20089;-74
2022/04/21 07:40:54;;;;;;;0.08;0.08;;;;;;;14.40;43.57;99042.72;4877090;29;20152;-75
2022/04/21 07:43:20;;;;;;;0.10;0.10;;;;;;;14.36;43.65;99036.38;4877199;29;20068;-73
2022/04/21 07:45:46;;;;;;;0.10;0.10;;;;;;;14.38;43.47;99039.56;4877017;29;20409;-73
2022/04/21 07:48:12;;;;;;;0.08;0.08;;;;;;;14.32;42.87;99033.47;4877455;29;20025;-73
2022/04/21 07:50:37;;;;;;;0.00;0.00;;;;;;;14.36;43.66;99036.38;4876607;29;20025;-74
2022/04/21 07:53:15;;;;;;;0.10;0.10;;;;;;;14.26;44.17;99029.31;4876832;29;20036;-74
2022/04/21 07:55:46;;;;;;;0.10;0.10;;;;;;;14.23;45.21;99032.59;4876908;29;20497;-74
2022/04/21 07:58:12;;;;;;;0.10;0.10;;;;;;;14.27;45.15;99030.09;4877122;29;20185;-74
2022/04/21 08:00:38;;;;;;;0.00;0.00;;;;;;;14.30;44.56;99030.28;4876848;29;20041;-74
2022/04/21 08:03:06;;;;;;;0.00;0.00;;;;;;;14.34;45.13;99041.25;4879503;29;20131;-74
2022/04/21 08:05:32;;;;;;;0.05;0.05;;;;;;;14.38;44.88;99043.03;4880547;29;20033;-74
2022/04/21 08:07:58;;;;;;;0.05;0.05;;;;;;;14.37;44.50;99046.03;4880794;29;20029;-75
2022/04/21 08:10:27;;;;;;;0.00;0.00;;;;;;;14.39;45.19;99043.81;4880681;29;20485;-75
2022/04/21 08:12:53;;;;;;;0.00;0.00;;;;;;;14.43;44.92;99039.44;4880472;29;20025;-75
2022/04/21 08:15:28;;;;;;;0.05;0.05;;;;;;;14.45;44.68;99044.53;4880656;29;20029;-75
2022/04/21 08:18:07;;;;;;;0.00;0.00;;;;;;;14.41;45.23;99042.44;4880381;29;20035;-75
2022/04/21 08:20:36;;;;;;;0.00;0.00;;;;;;;14.48;45.21;99039.34;4880313;29;20097;-75
2022/04/21 08:23:04;;;;;;;0.10;0.10;;;;;;;14.57;45.65;99042.91;4880132;29;20370;-75
2022/04/21 08:33:42;;;;;;;0.00;0.00;;;;;;;14.81;46.33;99058.03;4879948;29;20131;-76
2022/04/21 08:36:07;;;;;;;0.00;0.00;;;;;;;14.91;46.47;99057.00;4880559;29;20033;-74
2022/04/21 08:38:34;;;;;;;0.00;0.00;;;;;;;14.81;47.45;99059.94;4880060;29;20028;-74
2022/04/21 08:41:15;;;;;;;0.00;0.00;;;;;;;14.82;45.33;99056.94;4879962;29;20481;-75
2022/04/21 08:43:41;;;;;;;0.00;0.00;;;;;;;14.82;44.23;99053.47;4879857;29;20029;-75
2022/04/21 08:46:12;;;;;;;0.43;0.43;;;;;;;14.76;46.71;99052.75;4880387;29;20128;-75
2022/04/21 08:48:39;;;;;;;0.00;0.00;;;;;;;14.75;46.96;99045.78;4879789;29;20021;-75
2022/04/21 08:51:08;;;;;;;0.00;0.00;;;;;;;14.78;48.15;99039.81;4879867;29;20120;-76
2022/04/21 08:53:33;;;;;;;0.00;0.00;;;;;;;14.78;48.25;99042.50;4879663;29;20049;-75
2022/04/21 08:56:00;;;;;;;0.20;0.20;;;;;;;14.84;48.45;99043.16;4879843;29;20044;-76
2022/04/21 08:58:26;;;;;;;0.08;0.08;;;;;;;14.90;47.27;99041.94;4879845;29;20025;-75
2022/04/21 09:00:54;;;;;;;0.17;0.17;;;;;;;14.94;45.64;99040.25;4879351;29;20032;-74
2022/04/21 09:03:19;;;;;;;0.00;0.00;;;;;;;14.97;46.44;99036.94;4879656;29;20474;-74
2022/04/21 09:05:45;;;;;;;0.00;0.00;;;;;;;15.03;46.68;99041.09;4879548;29;20037;-74
2022/04/21 09:08:22;;;;;;;0.00;0.00;;;;;;;15.04;46.06;99044.59;4879746;29;20112;-74
2022/04/21 09:11:02;;;;;;;0.13;0.13;;;;;;;15.07;45.86;99041.28;4879441;29;20093;-74
2022/04/21 09:13:41;;;;;;;0.00;0.00;;;;;;;15.00;44.67;99030.13;4878913;29;20052;-74
2022/04/21 09:16:08;;;;;;;0.00;0.00;;;;;;;15.02;44.33;99033.31;4879531;29;20064;-74
2022/04/21 09:18:46;;;;;;;0.00;0.00;;;;;;;15.02;43.49;99034.09;4879298;29;20025;-74
2022/04/21 09:21:16;;;;;;;0.00;0.00;;;;;;;15.07;42.53;99032.41;4879351;29;20125;-73
2022/04/21 09:23:47;;;;;;;0.10;0.10;;;;;;;15.01;43.38;99019.06;4879179;29;20056;-74
2022/04/21 09:26:14;;;;;;;0.10;0.10;;;;;;;15.02;43.61;99020.66;4879032;29;20469;-73
2022/04/21 09:28:41;;;;;;;0.00;0.00;;;;;;;15.09;44.34;99028.31;4879099;29;20138;-74
2022/04/21 09:31:08;;;;;;;0.00;0.00;;;;;;;15.09;44.85;99009.47;4879311;29;20048;-75
2022/04/21 09:33:40;;;;;;;0.05;0.05;;;;;;;15.17;44.67;99014.13;4879083;29;20036;-74
2022/04/21 09:36:07;;;;;;;0.10;0.10;;;;;;;15.22;44.73;99010.47;4879212;29;20045;-75
2022/04/21 09:38:35;;;;;;;0.00;0.00;;;;;;;15.25;45.17;99009.09;4879201;29;20056;-74
2022/04/21 09:41:06;;;;;;;0.00;0.00;;;;;;;15.29;45.39;99004.66;4878931;29;20171;-74
2022/04/21 09:43:37;;;;;;;0.00;0.00;;;;;;;15.26;45.57;98997.19;4847101;29;20379;-74
2022/04/21 09:46:12;;;;;;;0.00;0.00;;;;;;;15.21;46.42;99001.59;4879063;29;20033;-74
2022/04/21 09:48:38;;;;;;;0.00;0.00;;;;;;;15.10;46.69;98999.47;4878751;29;20029;-73
2022/04/21 09:51:24;;;;;;;0.00;0.00;;;;;;;15.04;47.12;98988.81;4878811;29;20537;-75
2022/04/21 09:53:57;;;;;;;0.00;0.00;;;;;;;15.00;47.57;98982.47;4878787;29;20029;-75
2022/04/21 09:56:31;;;;;;;0.00;0.00;;;;;;;15.07;47.84;98989.31;4878906;29;20072;-74
2022/04/21 09:58:57;;;;;;;0.00;0.00;;;;;;;15.16;47.71;98974.00;4878333;29;20485;-75
2022/04/21 10:01:23;;;;;;;0.00;0.00;;;;;;;15.23;44.85;98968.19;4878682;29;20037;-75
2022/04/21 10:03:48;;;;;;;0.00;0.00;;;;;;;15.24;44.04;98967.09;4878157;29;20105;-75
2022/04/21 10:06:16;;;;;;;0.03;0.03;;;;;;;15.34;44.10;98958.72;4878425;29;20052;-75
2022/04/21 10:08:43;;;;;;;0.05;0.05;;;;;;;15.44;44.37;98955.78;4878409;29;20112;-73
2022/04/21 10:11:09;;;;;;;0.00;0.00;;;;;;;15.56;44.20;98973.25;4878649;29;20116;-75
2022/04/21 10:13:35;;;;;;;0.08;0.08;;;;;;;15.58;44.53;98954.88;4878476;29;20177;-75
2022/04/21 10:16:01;;;;;;;0.00;0.00;;;;;;;15.59;44.65;98959.16;4878439;29;20040;-75
2022/04/21 10:18:27;;;;;;;0.00;0.00;;;;;;;15.62;44.87;98953.94;4878382;29;20025;-75
2022/04/21 10:20:55;;;;;;;0.10;0.10;;;;;;;15.63;44.98;98944.72;4878112;29;20037;-73
2022/04/21 10:23:22;;;;;;;0.05;0.05;;;;;;;15.55;45.25;98950.09;4878231;29;20032;-74
2022/04/21 10:25:59;;;;;;;0.10;0.10;;;;;;;15.53;45.74;98939.63;4876798;29;20044;-74
2022/04/21 10:28:34;;;;;;;0.25;0.25;;;;;;;15.61;44.18;98938.06;4878401;29;20037;-75
2022/04/21 10:31:29;;;;;;;0.00;0.00;;;;;;;15.66;43.02;98943.31;4878052;29;20029;-74
2022/04/21 10:33:56;;;;;;;0.40;0.40;;;;;;;15.73;43.44;98938.25;4878091;29;20101;-75
2022/04/21 10:36:47;;;;;;;0.00;0.00;;;;;;;15.83;42.75;98937.22;4878156;29;20029;-75
2022/04/21 10:39:18;;;;;;;0.00;0.00;;;;;;;15.98;42.62;98941.38;4878185;29;20478;-74
2022/04/21 10:41:45;;;;;;;0.00;0.00;;;;;;;16.07;41.69;98939.47;4877831;29;20029;-74
2022/04/21 10:44:25;;;;;;;0.00;0.00;;;;;;;16.23;42.11;98939.03;4878028;29;20025;-75
2022/04/21 10:47:29;;;;;;;0.00;0.00;;;;;;;16.39;41.32;98945.53;4877660;29;20057;-75
2022/04/21 10:50:20;;;;;;;0.08;0.08;;;;;;;16.42;40.03;98944.13;4877737;29;20025;-75
2022/04/21 10:58:51;;;;;;;0.00;0.00;;;;;;;16.72;40.75;98941.56;4877088;29;20043;-75
2022/04/21 11:01:27;;;;;;;0.00;0.00;;;;;;;16.73;40.77;98941.25;4876043;29;20052;-75
2022/04/21 11:04:06;;;;;;;0.15;0.15;;;;;;;16.88;41.64;98934.56;4877444;29;20036;-75
2022/04/21 11:06:42;;;;;;;0.10;0.10;;;;;;;16.96;41.74;98938.38;4877770;29;20478;-75
2022/04/21 11:09:08;;;;;;;0.00;0.00;;;;;;;17.04;41.49;98934.06;4877642;29;20037;-75
2022/04/21 11:11:45;;;;;;;0.10;0.10;;;;;;;17.02;39.90;98937.09;4877652;29;20461;-75
2022/04/21 11:14:11;;;;;;;2.72;0.63;;;;;;;17.03;40.43;98927.06;4877588;29;20036;-74
2022/04/21 11:16:47;;;;;;;0.00;0.00;;;;;;;17.07;41.16;98926.13;4860931;29;20036;-75
2022/04/21 11:19:40;;;;;;;0.00;0.00;;;;;;;17.13;41.05;98932.16;4877505;29;20025;-75
2022/04/21 11:22:11;;;;;;;0.00;0.00;;;;;;;17.11;40.49;98918.16;4869885;29;20463;-75
2022/04/21 11:24:54;;;;;;;0.05;0.05;;;;;;;17.16;40.09;98930.72;4876698;29;20036;-74
2022/04/21 11:27:21;;;;;;;0.00;0.00;;;;;;;17.16;39.51;98925.31;4863242;29;20560;-75
2022/04/21 11:29:47;;;;;;;0.00;0.00;;;;;;;17.17;39.86;98922.28;4858527;29;20033;-74
2022/04/21 11:32:16;;;;;;;0.00;0.00;;;;;;;17.20;40.37;98927.06;4857953;29;20058;-74
2022/04/21 11:34:42;;;;;;;0.00;0.00;;;;;;;17.22;40.00;98919.41;4857452;29;20029;-74
2022/04/21 11:37:08;;;;;;;0.00;0.00;;;;;;;17.31;39.70;98916.69;4857512;29;20142;-74
2022/04/21 11:39:37;;;;;;;0.00;0.00;;;;;;;17.42;39.81;98926.00;4858190;29;20168;-74
2022/04/21 11:42:03;;;;;;;0.10;0.10;;;;;;;17.53;39.91;98917.56;4857796;29;20052;-74
2022/04/21 11:44:29;;;;;;;0.10;0.10;;;;;;;17.62;40.14;98915.56;4857837;29;20494;-74
2022/04/21 11:46:54;;;;;;;0.00;0.00;;;;;;;17.66;39.35;98905.69;4857807;29;20037;-74
2022/04/21 11:49:20;;;;;;;0.10;0.10;;;;;;;17.73;39.50;98922.19;4858002;29;20460;-74
2022/04/21 11:51:52;;;;;;;0.00;0.00;;;;;;;17.67;39.49;98911.91;4857368;29;20058;-74
2022/04/21 11:54:18;;;;;;;0.10;0.10;;;;;;;17.67;39.10;98907.28;4856617;29;20065;-74
2022/04/21 11:56:50;;;;;;;0.00;0.00;;;;;;;17.70;37.94;98911.22;4857902;29;20057;-74
2022/04/21 11:59:15;;;;;;;0.00;0.00;;;;;;;17.66;37.70;98908.38;4857677;29;20032;-74
2022/04/21 12:07:18;;;;;;;0.00;0.00;;;;;;;17.74;38.57;98898.66;4852001;29;20045;-75
2022/04/21 12:09:46;;;;;;;0.00;0.00;;;;;;;17.71;38.66;98893.91;4838819;29;20045;-74
2022/04/21 12:12:12;;;;;;;0.00;0.00;;;;;;;17.70;38.64;98885.00;4838648;29;20090;-74
2022/04/21 12:14:43;;;;;;;0.00;0.00;;;;;;;17.76;37.18;98888.31;4839209;29;20046;-74
2022/04/21 12:17:10;;;;;;;0.00;0.00;;;;;;;17.76;37.29;98880.97;4838642;29;20041;-74
2022/04/21 12:19:46;;;;;;;0.05;0.05;;;;;;;17.72;36.49;98871.94;4838188;29;20042;-74
2022/04/21 12:22:30;;;;;;;0.00;0.00;;;;;;;17.71;37.37;98867.66;4838419;29;20072;-74
2022/04/21 12:24:55;;;;;;;0.00;0.00;;;;;;;17.82;37.97;98867.25;4820398;29;20075;-74
2022/04/21 12:27:34;;;;;;;0.00;0.00;;;;;;;17.86;37.81;98868.19;4804290;29;20456;-74
2022/04/21 12:30:04;;;;;;;0.10;0.10;;;;;;;17.82;38.48;98868.06;4820482;29;20468;-74
2022/04/21 12:32:35;;;;;;;0.00;0.00;;;;;;;17.82;38.10;98864.56;4820530;29;20026;-74
2022/04/21 12:35:06;;;;;;;0.10;0.10;;;;;;;17.88;38.28;98861.34;4820147;29;20042;-73
2022/04/21 12:37:40;;;;;;;0.00;0.00;;;;;;;17.87;38.20;98857.06;4831315;29;20052;-73
2022/04/21 12:40:13;;;;;;;0.05;0.05;;;;;;;17.85;37.88;98853.88;4838562;29;20636;-73
2022/04/21 12:42:43;;;;;;;0.28;0.28;;;;;;;17.82;37.95;98849.13;4838379;29;20050;-75
2022/04/21 12:45:09;;;;;;;0.00;0.00;;;;;;;17.77;38.48;98860.13;4838236;29;20080;-75
2022/04/21 12:47:43;;;;;;;0.00;0.00;;;;;;;17.73;38.04;98846.47;4838729;29;20045;-75
2022/04/21 12:50:10;;;;;;;0.00;0.00;;;;;;;17.72;38.42;98854.91;4840520;29;20025;-76
2022/04/21 12:52:45;;;;;;;0.30;0.30;;;;;;;17.67;38.14;98847.78;4857877;29;20061;-76
2022/04/21 12:55:20;;;;;;;0.00;0.00;;;;;;;17.65;39.11;98849.22;4860315;29;20041;-75
2022/04/21 12:58:07;;;;;;;0.00;0.00;;;;;;;17.73;39.01;98843.75;4859750;29;20038;-75
2022/04/21 13:00:36;;;;;;;0.30;0.30;;;;;;;17.71;38.83;98840.63;4868294;29;20037;-76
2022/04/21 13:03:02;;;;;;;0.10;0.10;;;;;;;17.74;39.17;98836.47;4878492;29;20079;-75
2022/04/21 13:05:28;;;;;;;0.00;0.00;;;;;;;17.81;38.76;98831.31;4878432;29;20085;-75
2022/04/21 13:07:54;;;;;;;0.00;0.00;;;;;;;17.77;38.69;98841.19;4865262;29;20064;-75
2022/04/21 13:10:21;;;;;;;0.00;0.00;;;;;;;17.86;38.37;98833.03;4860664;29;20117;-75
2022/04/21 13:12:50;;;;;;;0.00;0.00;;;;;;;17.90;39.26;98833.94;4860361;29;20044;-75
2022/04/21 13:15:16;;;;;;;0.10;0.10;;;;;;;17.85;38.96;98821.41;4860283;29;20037;-75
2022/04/21 13:17:42;;;;;;;0.00;0.00;;;;;;;17.80;39.32;98837.84;4860500;29;20089;-75
2022/04/21 13:20:09;;;;;;;0.00;0.00;;;;;;;17.78;38.70;98842.78;4861713;29;20447;-75
2022/04/21 13:22:34;;;;;;;0.00;0.00;;;;;;;17.71;37.49;98837.09;4874655;29;20112;-75
2022/04/21 13:24:59;;;;;;;0.00;0.00;;;;;;;17.72;38.10;98835.97;4879195;29;20112;-75
2022/04/21 13:27:27;;;;;;;0.10;0.10;;;;;;;17.71;38.37;98835.22;4862428;29;20529;-75
2022/04/21 13:29:53;;;;;;;0.10;0.10;;;;;;;17.73;38.11;98835.66;4860633;29;20030;-74
2022/04/21 13:35:03;;;;;;;0.00;0.00;;;;;;;17.71;36.35;98848.72;4860550;29;20085;-75
2022/04/21 13:37:29;;;;;;;0.00;0.00;;;;;;;17.70;36.30;98839.03;4869431;29;20032;-75
2022/04/21 13:39:54;;;;;;;0.00;0.00;;;;;;;17.73;37.62;98841.06;4878744;29;20115;-75
2022/04/21 13:42:20;;;;;;;0.25;0.25;;;;;;;17.69;37.28;98842.84;4878179;29;20032;-74
2022/04/21 13:44:45;;;;;;;0.00;0.00;;;;;;;17.75;38.14;98843.44;4878048;29;20025;-75
2022/04/21 13:47:10;;;;;;;1.25;0.55;;;;;;;17.77;37.60;98841.19;4878786;29;20033;-75
2022/04/21 13:49:37;;;;;;;0.10;0.10;;;;;;;17.81;37.41;98844.03;4877037;29;20096;-75
2022/04/21 13:52:03;;;;;;;0.00;0.00;;;;;;;17.83;37.47;98837.16;4878646;29;20053;-75
2022/04/21 13:54:28;;;;;;;0.00;0.00;;;;;;;17.93;37.57;98833.28;4878940;29;20497;-75
2022/04/21 13:56:54;;;;;;;0.00;0.00;;;;;;;17.98;38.29;98837.72;4878660;29;20489;-75
2022/04/21 13:59:19;;;;;;;0.25;0.25;;;;;;;18.04;38.55;98831.81;4878703;29;20040;-75
2022/04/21 14:01:45;;;;;;;0.10;0.10;;;;;;;18.10;38.05;98831.59;4878633;29;20117;-75
2022/04/21 14:04:11;;;;;;;0.08;0.08;;;;;;;18.11;38.19;98838.59;4878118;29;20029;-76
2022/04/21 14:06:36;;;;;;;0.13;0.13;;;;;;;18.14;38.77;98829.81;4878463;29;20029;-75
2022/04/21 14:09:03;;;;;;;0.10;0.10;;;;;;;18.13;39.21;98826.31;4878705;29;20040;-74
2022/04/21 14:11:29;;;;;;;0.00;0.00;;;;;;;18.06;39.36;98821.41;4878336;29;20041;-75
2022/04/21 14:13:54;;;;;;;0.08;0.08;;;;;;;18.02;38.77;98834.03;4878642;29;20523;-76
2022/04/21 14:16:19;;;;;;;0.10;0.10;;;;;;;17.99;39.58;98832.00;4878491;29;20494;-75
2022/04/21 14:18:46;;;;;;;0.00;0.00;;;;;;;17.99;39.00;98828.50;4878491;29;20067;-74
2022/04/21 14:21:13;;;;;;;0.47;0.47;;;;;;;17.96;39.28;98826.47;4878207;29;20486;-74
2022/04/21 14:23:40;;;;;;;0.00;0.00;;;;;;;17.92;39.47;98829.00;4878334;29;20032;-74
2022/04/21 14:26:10;;;;;;;0.10;0.10;;;;;;;17.96;39.53;98840.78;4878151;29;20043;-74
2022/04/21 14:28:39;;;;;;;0.10;0.10;;;;;;;18.04;40.09;98829.09;4878339;29;20112;-74
2022/04/21 14:31:09;;;;;;;0.00;0.00;;;;;;;18.02;40.12;98825.94;4877813;29;20402;-74
2022/04/21 14:33:36;;;;;;;0.00;0.00;;;;;;;18.07;41.64;98841.94;4878289;29;20036;-74
2022/04/21 14:36:11;;;;;;;0.00;0.00;;;;;;;18.11;41.88;98833.97;4870128;29;20486;-74
2022/04/21 14:44:07;;;;;;;0.22;0.22;;;;;;;18.31;43.20;98824.25;4859118;29;20139;-75
2022/04/21 14:46:47;;;;;;;0.00;0.00;;;;;;;18.40;43.27;98830.34;4858237;29;20030;-74
2022/04/21 14:49:15;;;;;;;0.05;0.05;;;;;;;18.48;41.20;98836.84;4859157;29;20049;-74
2022/04/21 14:51:41;;;;;;;0.08;0.08;;;;;;;18.39;41.25;98825.28;4858982;29;20045;-74
2022/04/21 14:54:07;;;;;;;0.00;0.00;;;;;;;18.39;41.64;98831.50;4859018;29;20033;-74
2022/04/21 14:56:37;;;;;;;0.10;0.10;;;;;;;18.34;41.21;98830.91;4859220;29;20037;-74
2022/04/21 14:59:03;;;;;;;1.77;1.33;;;;;;;18.27;41.60;98833.38;4858891;29;20056;-74
2022/04/21 15:01:28;;;;;;;0.32;0.32;;;;;;;18.22;42.47;98834.34;4859261;29;20482;-74
2022/04/21 15:03:54;;;;;;;0.20;0.20;;;;;;;18.19;43.12;98835.81;4858916;29;20034;-74
2022/04/21 15:06:19;;;;;;;0.10;0.10;;;;;;;18.13;43.35;98834.44;4857886;29;20463;-74
2022/04/21 15:08:45;;;;;;;0.10;0.10;;;;;;;18.16;43.43;98824.84;4858811;29;20032;-74
2022/04/21 15:11:11;;;;;;;0.35;0.35;;;;;;;18.18;43.66;98831.50;4858373;29;20037;-74
2022/04/21 15:13:37;;;;;;;0.00;0.00;;;;;;;18.11;44.08;98823.13;4858714;29;20032;-74
2022/04/21 15:16:03;;;;;;;0.32;0.32;;;;;;;18.07;44.42;98833.06;4858810;29;20403;-74
2022/04/21 15:18:29;;;;;;;0.20;0.20;;;;;;;18.05;44.42;98830.69;4842165;29;20509;-73
2022/04/21 15:20:57;;;;;;;0.00;0.00;;;;;;;17.97;44.43;98839.66;4858348;29;20074;-74
2022/04/21 15:23:23;;;;;;;0.17;0.17;;;;;;;17.94;44.81;98837.56;4858858;29;20120;-73
2022/04/21 15:25:53;;;;;;;0.05;0.05;;;;;;;17.89;44.91;98830.47;4858921;29;20062;-74
2022/04/21 15:28:20;;;;;;;0.10;0.10;;;;;;;17.89;44.95;98826.94;4858833;29;20037;-73
2022/04/21 15:30:45;;;;;;;0.00;0.00;;;;;;;17.92;44.91;98823.59;4858894;29;20033;-75
2022/04/21 15:33:11;;;;;;;0.00;0.00;;;;;;;17.96;44.48;98827.25;4858560;29;20570;-74
2022/04/21 15:35:41;;;;;;;0.00;0.00;;;;;;;17.98;45.16;98822.31;4858767;29;20401;-73
2022/04/21 15:38:07;;;;;;;0.15;0.15;;;;;;;18.02;44.78;98820.50;4858383;29;20037;-74
2022/04/21 15:40:33;;;;;;;0.00;0.00;;;;;;;17.93;44.86;98811.63;4858778;29;20045;-73
2022/04/21 15:42:58;;;;;;;0.00;0.00;;;;;;;18.00;44.74;98820.03;4858481;29;20057;-74
2022/04/21 15:45:24;;;;;;;0.20;0.20;;;;;;;17.98;45.04;98821.50;4858702;29;20121;-74
2022/04/21 15:47:49;;;;;;;0.20;0.20;;;;;;;17.96;45.19;98821.84;4858584;29;20406;-74
2022/04/21 15:50:15;;;;;;;0.68;0.68;;;;;;;17.96;45.25;98818.34;4858343;29;20125;-74
2022/04/21 15:52:41;;;;;;;0.00;0.00;;;;;;;17.95;45.24;98820.25;4858616;29;20057;-74
2022/04/21 16:00:35;;;;;;;0.00;0.00;;;;;;;17.97;45.51;98822.63;4858405;29;20041;-73